Pagina principale
METAR-TAF:

METAR-TAF

Aeroporti :

Hévíz, Ungheria

Aeroporto di Sármellék

latitudine: 46-41-11N, longitudine: 017-09-33E, altezza: 124 m

Osservazione

Il bollettino è stato emesso 25 minuti fa, alle 09:15 UTC
Vento 7 kt da sud
Temperature 24°C
Umidità 41%
Pressione 1019 hPa
Visibilità 10 km o più
nessuna nube inferiore a 1500 m e nessun cumulonembo

METAR: LHSM 290915Z 17007KT CAVOK 24/10 Q1019 NOSIG

Ora: 11:40 (09:40 UTC)

Previsione

Il bollettino è stato emesso 1 ora e 25 minuti fa, alle 08:15 UTC
Previsione valida dal 29 alle 09 UTC al 29 alle 18 UTC
Vento 8 kt da sud
Visibilità 10 km o più
nessuna nube inferiore a 1500 m e nessun cumulonembo
Evoluzione graduale
dal 29 alle 15 UTC al 29 alle 18 UTC
Vento 3 kt da direzioni variabili

TAF: LHSM 290815Z 2909/2918 19008KT CAVOK BECMG 2915/2918 VRB03KT

Osservazioni e previsioni meteorologiche di più di 4000 aeroporti (messaggi METAR e TAF).

Le stazioni disponibili sono rappresentate dai dischi gialli e rossi sulla carta.

Puntare il mouse per vedere il nome della stazione.

Clicca sopra per visualizzare le osservazioni e previsioni meteorologiche.

Per cambiare la mappa : fare clic sui pulsanti verdi con una croce nera per ingrandire, il pulsante verde con un trattino per diminuire, o sulla freccia verde per le mappe adiacenti.


METAR-TAF: